sensor_id;sensor_type;location;lat;lon;timestamp;P1;durP1;ratioP1;P2;durP2;ratioP2
27003;SDS011;14546;47.590;19.022;2022-11-25T00:01:36;48.83;;;29.83;;
27003;SDS011;14546;47.590;19.022;2022-11-25T00:04:03;58.33;;;34.97;;
27003;SDS011;14546;47.590;19.022;2022-11-25T00:06:30;55.55;;;33.88;;
27003;SDS011;14546;47.590;19.022;2022-11-25T00:09:01;58.22;;;35.60;;
27003;SDS011;14546;47.590;19.022;2022-11-25T00:11:27;57.55;;;32.78;;
27003;SDS011;14546;47.590;19.022;2022-11-25T00:13:54;57.45;;;33.25;;
27003;SDS011;14546;47.590;19.022;2022-11-25T00:16:20;56.03;;;34.47;;
27003;SDS011;14546;47.590;19.022;2022-11-25T00:18:47;56.15;;;33.80;;
27003;SDS011;14546;47.590;19.022;2022-11-25T00:21:15;57.78;;;33.50;;
27003;SDS011;14546;47.590;19.022;2022-11-25T00:23:41;54.35;;;32.47;;
27003;SDS011;14546;47.590;19.022;2022-11-25T00:26:08;55.92;;;32.28;;
27003;SDS011;14546;47.590;19.022;2022-11-25T00:28:34;49.50;;;29.02;;
27003;SDS011;14546;47.590;19.022;2022-11-25T00:31:08;55.55;;;31.25;;
27003;SDS011;14546;47.590;19.022;2022-11-25T00:33:34;51.15;;;30.38;;
27003;SDS011;14546;47.590;19.022;2022-11-25T00:36:01;48.55;;;30.45;;
27003;SDS011;14546;47.590;19.022;2022-11-25T00:38:27;53.00;;;30.05;;
27003;SDS011;14546;47.590;19.022;2022-11-25T00:40:54;56.53;;;30.63;;
27003;SDS011;14546;47.590;19.022;2022-11-25T00:43:39;53.85;;;31.50;;
27003;SDS011;14546;47.590;19.022;2022-11-25T00:46:24;50.03;;;30.10;;
27003;SDS011;14546;47.590;19.022;2022-11-25T00:48:50;57.53;;;31.23;;
27003;SDS011;14546;47.590;19.022;2022-11-25T00:51:16;52.65;;;31.45;;
27003;SDS011;14546;47.590;19.022;2022-11-25T00:53:42;51.97;;;30.73;;
27003;SDS011;14546;47.590;19.022;2022-11-25T00:56:08;48.38;;;29.23;;
27003;SDS011;14546;47.590;19.022;2022-11-25T00:58:37;57.78;;;33.25;;
27003;SDS011;14546;47.590;19.022;2022-11-25T01:01:03;59.90;;;32.10;;
27003;SDS011;14546;47.590;19.022;2022-11-25T01:03:29;59.05;;;33.47;;
27003;SDS011;14546;47.590;19.022;2022-11-25T01:05:59;50.28;;;30.23;;
27003;SDS011;14546;47.590;19.022;2022-11-25T01:08:26;52.53;;;32.03;;
27003;SDS011;14546;47.590;19.022;2022-11-25T01:11:11;53.33;;;32.70;;
27003;SDS011;14546;47.590;19.022;2022-11-25T01:13:38;53.85;;;33.83;;
27003;SDS011;14546;47.590;19.022;2022-11-25T01:16:04;52.00;;;32.80;;
27003;SDS011;14546;47.590;19.022;2022-11-25T01:18:31;59.08;;;33.90;;
27003;SDS011;14546;47.590;19.022;2022-11-25T01:23:36;56.80;;;33.08;;
27003;SDS011;14546;47.590;19.022;2022-11-25T01:26:06;58.55;;;34.78;;
27003;SDS011;14546;47.590;19.022;2022-11-25T01:28:32;62.72;;;36.33;;
27003;SDS011;14546;47.590;19.022;2022-11-25T01:30:59;58.20;;;32.88;;
27003;SDS011;14546;47.590;19.022;2022-11-25T01:33:25;57.30;;;35.53;;
27003;SDS011;14546;47.590;19.022;2022-11-25T01:35:51;63.00;;;35.15;;
27003;SDS011;14546;47.590;19.022;2022-11-25T01:38:17;63.63;;;35.75;;
27003;SDS011;14546;47.590;19.022;2022-11-25T01:40:43;60.80;;;36.22;;
27003;SDS011;14546;47.590;19.022;2022-11-25T01:43:12;64.43;;;36.25;;
27003;SDS011;14546;47.590;19.022;2022-11-25T01:45:39;62.72;;;36.55;;
27003;SDS011;14546;47.590;19.022;2022-11-25T01:48:09;60.97;;;36.40;;
27003;SDS011;14546;47.590;19.022;2022-11-25T01:50:37;58.47;;;33.22;;
27003;SDS011;14546;47.590;19.022;2022-11-25T01:53:04;57.20;;;33.08;;
27003;SDS011;14546;47.590;19.022;2022-11-25T01:55:30;60.70;;;34.78;;
27003;SDS011;14546;47.590;19.022;2022-11-25T01:57:58;55.10;;;32.95;;
27003;SDS011;14546;47.590;19.022;2022-11-25T02:00:25;62.20;;;33.80;;
27003;SDS011;14546;47.590;19.022;2022-11-25T02:02:52;55.67;;;33.55;;
27003;SDS011;14546;47.590;19.022;2022-11-25T02:05:20;58.78;;;34.97;;
27003;SDS011;14546;47.590;19.022;2022-11-25T02:07:47;57.95;;;32.75;;
27003;SDS011;14546;47.590;19.022;2022-11-25T02:10:21;61.15;;;35.13;;
27003;SDS011;14546;47.590;19.022;2022-11-25T02:12:48;60.50;;;35.63;;
27003;SDS011;14546;47.590;19.022;2022-11-25T02:15:15;57.33;;;33.75;;
27003;SDS011;14546;47.590;19.022;2022-11-25T02:17:41;56.88;;;32.90;;
27003;SDS011;14546;47.590;19.022;2022-11-25T02:20:11;56.53;;;31.15;;
27003;SDS011;14546;47.590;19.022;2022-11-25T02:25:11;62.38;;;34.88;;
27003;SDS011;14546;47.590;19.022;2022-11-25T02:30:03;57.50;;;32.78;;
27003;SDS011;14546;47.590;19.022;2022-11-25T02:32:29;60.42;;;34.78;;
27003;SDS011;14546;47.590;19.022;2022-11-25T02:34:55;62.95;;;35.08;;
27003;SDS011;14546;47.590;19.022;2022-11-25T02:37:21;68.00;;;36.45;;
27003;SDS011;14546;47.590;19.022;2022-11-25T02:39:48;71.85;;;37.53;;
27003;SDS011;14546;47.590;19.022;2022-11-25T02:42:14;73.22;;;39.38;;
27003;SDS011;14546;47.590;19.022;2022-11-25T02:44:41;70.70;;;36.78;;
27003;SDS011;14546;47.590;19.022;2022-11-25T02:47:07;68.57;;;37.40;;
27003;SDS011;14546;47.590;19.022;2022-11-25T02:49:33;68.40;;;36.80;;
27003;SDS011;14546;47.590;19.022;2022-11-25T02:51:59;60.60;;;35.65;;
27003;SDS011;14546;47.590;19.022;2022-11-25T02:54:25;65.72;;;36.25;;
27003;SDS011;14546;47.590;19.022;2022-11-25T02:56:51;61.83;;;35.67;;
27003;SDS011;14546;47.590;19.022;2022-11-25T02:59:17;60.60;;;33.25;;
27003;SDS011;14546;47.590;19.022;2022-11-25T03:01:43;61.85;;;34.10;;
27003;SDS011;14546;47.590;19.022;2022-11-25T03:04:09;61.00;;;35.08;;
27003;SDS011;14546;47.590;19.022;2022-11-25T03:06:35;62.60;;;35.92;;
27003;SDS011;14546;47.590;19.022;2022-11-25T03:09:02;62.00;;;34.00;;
27003;SDS011;14546;47.590;19.022;2022-11-25T03:11:28;58.33;;;32.47;;
27003;SDS011;14546;47.590;19.022;2022-11-25T03:14:13;58.47;;;33.10;;
27003;SDS011;14546;47.590;19.022;2022-11-25T03:16:39;58.42;;;33.72;;
27003;SDS011;14546;47.590;19.022;2022-11-25T03:19:05;61.28;;;31.42;;
27003;SDS011;14546;47.590;19.022;2022-11-25T03:21:32;57.92;;;32.45;;
27003;SDS011;14546;47.590;19.022;2022-11-25T03:23:58;54.20;;;30.85;;
27003;SDS011;14546;47.590;19.022;2022-11-25T03:26:24;53.67;;;32.15;;
27003;SDS011;14546;47.590;19.022;2022-11-25T03:28:50;56.42;;;30.55;;
27003;SDS011;14546;47.590;19.022;2022-11-25T03:31:16;49.42;;;29.90;;
27003;SDS011;14546;47.590;19.022;2022-11-25T03:33:42;52.28;;;29.25;;
27003;SDS011;14546;47.590;19.022;2022-11-25T03:36:08;54.38;;;29.85;;
27003;SDS011;14546;47.590;19.022;2022-11-25T03:38:34;51.95;;;29.10;;
27003;SDS011;14546;47.590;19.022;2022-11-25T03:41:00;51.13;;;27.85;;
27003;SDS011;14546;47.590;19.022;2022-11-25T03:43:26;52.70;;;28.65;;
27003;SDS011;14546;47.590;19.022;2022-11-25T03:45:52;57.05;;;29.13;;
27003;SDS011;14546;47.590;19.022;2022-11-25T03:48:18;47.20;;;29.25;;
27003;SDS011;14546;47.590;19.022;2022-11-25T03:50:46;48.00;;;28.20;;
27003;SDS011;14546;47.590;19.022;2022-11-25T03:53:13;49.38;;;25.83;;
27003;SDS011;14546;47.590;19.022;2022-11-25T03:55:39;50.97;;;27.45;;
27003;SDS011;14546;47.590;19.022;2022-11-25T03:58:05;51.28;;;27.27;;
27003;SDS011;14546;47.590;19.022;2022-11-25T04:00:31;49.72;;;25.98;;
27003;SDS011;14546;47.590;19.022;2022-11-25T04:02:57;45.30;;;26.05;;
27003;SDS011;14546;47.590;19.022;2022-11-25T04:05:23;43.25;;;25.08;;
27003;SDS011;14546;47.590;19.022;2022-11-25T04:07:49;46.85;;;25.10;;
27003;SDS011;14546;47.590;19.022;2022-11-25T04:10:15;46.45;;;25.48;;
27003;SDS011;14546;47.590;19.022;2022-11-25T04:12:41;48.63;;;25.80;;
27003;SDS011;14546;47.590;19.022;2022-11-25T04:15:10;44.03;;;24.88;;
27003;SDS011;14546;47.590;19.022;2022-11-25T04:17:36;43.97;;;22.05;;
27003;SDS011;14546;47.590;19.022;2022-11-25T04:20:03;42.65;;;23.60;;
27003;SDS011;14546;47.590;19.022;2022-11-25T04:22:29;47.25;;;25.02;;
27003;SDS011;14546;47.590;19.022;2022-11-25T04:24:55;44.22;;;23.58;;
27003;SDS011;14546;47.590;19.022;2022-11-25T04:27:21;51.28;;;27.23;;
27003;SDS011;14546;47.590;19.022;2022-11-25T04:29:47;50.05;;;25.83;;
27003;SDS011;14546;47.590;19.022;2022-11-25T04:32:13;53.67;;;27.30;;
27003;SDS011;14546;47.590;19.022;2022-11-25T04:34:39;48.92;;;26.70;;
27003;SDS011;14546;47.590;19.022;2022-11-25T04:37:05;53.53;;;27.08;;
27003;SDS011;14546;47.590;19.022;2022-11-25T04:39:31;52.30;;;27.25;;
27003;SDS011;14546;47.590;19.022;2022-11-25T04:41:57;60.42;;;29.60;;
27003;SDS011;14546;47.590;19.022;2022-11-25T04:44:41;60.45;;;28.52;;
27003;SDS011;14546;47.590;19.022;2022-11-25T04:47:07;51.75;;;27.73;;
27003;SDS011;14546;47.590;19.022;2022-11-25T04:49:33;52.28;;;27.58;;
27003;SDS011;14546;47.590;19.022;2022-11-25T04:51:59;61.20;;;29.70;;
27003;SDS011;14546;47.590;19.022;2022-11-25T04:54:25;57.53;;;28.95;;
27003;SDS011;14546;47.590;19.022;2022-11-25T04:56:51;54.45;;;27.70;;
27003;SDS011;14546;47.590;19.022;2022-11-25T04:59:17;53.72;;;27.83;;
27003;SDS011;14546;47.590;19.022;2022-11-25T05:02:02;57.15;;;29.15;;
27003;SDS011;14546;47.590;19.022;2022-11-25T05:04:28;57.80;;;28.35;;
27003;SDS011;14546;47.590;19.022;2022-11-25T05:06:54;54.50;;;28.90;;
27003;SDS011;14546;47.590;19.022;2022-11-25T05:09:20;56.75;;;27.88;;
27003;SDS011;14546;47.590;19.022;2022-11-25T05:11:46;55.72;;;28.55;;
27003;SDS011;14546;47.590;19.022;2022-11-25T05:14:12;57.75;;;29.02;;
27003;SDS011;14546;47.590;19.022;2022-11-25T05:16:38;54.60;;;27.98;;
27003;SDS011;14546;47.590;19.022;2022-11-25T05:19:04;50.90;;;27.35;;
27003;SDS011;14546;47.590;19.022;2022-11-25T05:21:31;49.92;;;27.27;;
27003;SDS011;14546;47.590;19.022;2022-11-25T05:23:57;52.42;;;27.17;;
27003;SDS011;14546;47.590;19.022;2022-11-25T05:26:23;50.75;;;26.63;;
27003;SDS011;14546;47.590;19.022;2022-11-25T05:28:49;51.50;;;27.38;;
27003;SDS011;14546;47.590;19.022;2022-11-25T05:31:15;50.53;;;25.95;;
27003;SDS011;14546;47.590;19.022;2022-11-25T05:33:41;52.95;;;25.80;;
27003;SDS011;14546;47.590;19.022;2022-11-25T05:36:08;54.17;;;27.40;;
27003;SDS011;14546;47.590;19.022;2022-11-25T05:38:34;52.78;;;26.38;;
27003;SDS011;14546;47.590;19.022;2022-11-25T05:41:04;55.95;;;29.48;;
27003;SDS011;14546;47.590;19.022;2022-11-25T05:43:30;52.30;;;26.95;;
27003;SDS011;14546;47.590;19.022;2022-11-25T05:45:56;57.35;;;29.27;;
27003;SDS011;14546;47.590;19.022;2022-11-25T05:48:22;58.58;;;28.88;;
27003;SDS011;14546;47.590;19.022;2022-11-25T05:50:48;60.63;;;29.83;;
27003;SDS011;14546;47.590;19.022;2022-11-25T05:53:14;59.08;;;29.65;;
27003;SDS011;14546;47.590;19.022;2022-11-25T05:55:43;51.70;;;26.63;;
27003;SDS011;14546;47.590;19.022;2022-11-25T05:58:09;50.20;;;27.42;;
27003;SDS011;14546;47.590;19.022;2022-11-25T06:00:35;51.75;;;27.55;;
27003;SDS011;14546;47.590;19.022;2022-11-25T06:03:01;60.15;;;30.67;;
27003;SDS011;14546;47.590;19.022;2022-11-25T06:05:27;70.00;;;33.92;;
27003;SDS011;14546;47.590;19.022;2022-11-25T06:07:53;59.28;;;30.35;;
27003;SDS011;14546;47.590;19.022;2022-11-25T06:10:19;66.35;;;31.88;;
27003;SDS011;14546;47.590;19.022;2022-11-25T06:12:45;63.60;;;33.92;;
27003;SDS011;14546;47.590;19.022;2022-11-25T06:15:11;70.13;;;35.10;;
27003;SDS011;14546;47.590;19.022;2022-11-25T06:17:38;65.90;;;34.63;;
27003;SDS011;14546;47.590;19.022;2022-11-25T06:20:05;66.40;;;33.30;;
27003;SDS011;14546;47.590;19.022;2022-11-25T06:22:31;61.70;;;32.20;;
27003;SDS011;14546;47.590;19.022;2022-11-25T06:24:57;63.38;;;33.50;;
27003;SDS011;14546;47.590;19.022;2022-11-25T06:27:23;66.43;;;34.58;;
27003;SDS011;14546;47.590;19.022;2022-11-25T06:29:49;66.00;;;33.45;;
27003;SDS011;14546;47.590;19.022;2022-11-25T06:32:15;68.43;;;33.85;;
27003;SDS011;14546;47.590;19.022;2022-11-25T06:34:41;70.93;;;34.10;;
27003;SDS011;14546;47.590;19.022;2022-11-25T06:37:07;70.13;;;33.92;;
27003;SDS011;14546;47.590;19.022;2022-11-25T06:39:33;66.00;;;33.33;;
27003;SDS011;14546;47.590;19.022;2022-11-25T06:41:59;64.47;;;34.13;;
27003;SDS011;14546;47.590;19.022;2022-11-25T06:44:25;59.67;;;32.03;;
27003;SDS011;14546;47.590;19.022;2022-11-25T06:46:51;66.60;;;33.83;;
27003;SDS011;14546;47.590;19.022;2022-11-25T06:49:17;69.70;;;35.40;;
27003;SDS011;14546;47.590;19.022;2022-11-25T06:51:43;67.20;;;33.13;;
27003;SDS011;14546;47.590;19.022;2022-11-25T06:54:09;74.40;;;36.33;;
27003;SDS011;14546;47.590;19.022;2022-11-25T06:56:35;69.75;;;33.58;;
27003;SDS011;14546;47.590;19.022;2022-11-25T06:59:01;64.78;;;33.63;;
27003;SDS011;14546;47.590;19.022;2022-11-25T07:01:28;71.50;;;34.47;;
27003;SDS011;14546;47.590;19.022;2022-11-25T07:03:58;59.25;;;32.28;;
27003;SDS011;14546;47.590;19.022;2022-11-25T07:06:24;68.75;;;34.33;;
27003;SDS011;14546;47.590;19.022;2022-11-25T07:08:50;68.57;;;35.38;;
27003;SDS011;14546;47.590;19.022;2022-11-25T07:11:21;75.47;;;35.95;;
27003;SDS011;14546;47.590;19.022;2022-11-25T07:13:49;72.78;;;35.15;;
27003;SDS011;14546;47.590;19.022;2022-11-25T07:16:15;73.55;;;36.80;;
27003;SDS011;14546;47.590;19.022;2022-11-25T07:18:41;86.25;;;38.97;;
27003;SDS011;14546;47.590;19.022;2022-11-25T07:21:11;80.32;;;38.35;;
27003;SDS011;14546;47.590;19.022;2022-11-25T07:23:39;88.45;;;40.92;;
27003;SDS011;14546;47.590;19.022;2022-11-25T07:26:10;82.28;;;39.47;;
27003;SDS011;14546;47.590;19.022;2022-11-25T07:28:36;82.03;;;39.70;;
27003;SDS011;14546;47.590;19.022;2022-11-25T07:33:32;84.35;;;38.88;;
27003;SDS011;14546;47.590;19.022;2022-11-25T07:36:04;86.95;;;38.42;;
27003;SDS011;14546;47.590;19.022;2022-11-25T07:38:31;79.13;;;38.22;;
27003;SDS011;14546;47.590;19.022;2022-11-25T07:41:08;74.63;;;37.70;;
27003;SDS011;14546;47.590;19.022;2022-11-25T07:43:34;72.65;;;36.42;;
27003;SDS011;14546;47.590;19.022;2022-11-25T07:46:08;76.90;;;38.17;;
27003;SDS011;14546;47.590;19.022;2022-11-25T07:48:34;75.82;;;37.25;;
27003;SDS011;14546;47.590;19.022;2022-11-25T07:51:00;76.55;;;38.53;;
27003;SDS011;14546;47.590;19.022;2022-11-25T07:53:26;73.45;;;37.42;;
27003;SDS011;14546;47.590;19.022;2022-11-25T07:55:52;78.97;;;36.60;;
27003;SDS011;14546;47.590;19.022;2022-11-25T07:58:18;71.18;;;35.85;;
27003;SDS011;14546;47.590;19.022;2022-11-25T08:00:44;64.15;;;35.17;;
27003;SDS011;14546;47.590;19.022;2022-11-25T08:03:10;66.82;;;36.00;;
27003;SDS011;14546;47.590;19.022;2022-11-25T08:05:36;63.15;;;34.38;;
27003;SDS011;14546;47.590;19.022;2022-11-25T08:08:02;69.85;;;37.33;;
27003;SDS011;14546;47.590;19.022;2022-11-25T08:10:28;80.00;;;37.95;;
27003;SDS011;14546;47.590;19.022;2022-11-25T08:12:54;71.20;;;36.78;;
27003;SDS011;14546;47.590;19.022;2022-11-25T08:15:20;71.03;;;37.47;;
27003;SDS011;14546;47.590;19.022;2022-11-25T08:17:46;72.07;;;37.90;;
27003;SDS011;14546;47.590;19.022;2022-11-25T08:20:16;77.88;;;36.80;;
27003;SDS011;14546;47.590;19.022;2022-11-25T08:22:42;70.03;;;36.28;;
27003;SDS011;14546;47.590;19.022;2022-11-25T08:25:08;70.60;;;37.80;;
27003;SDS011;14546;47.590;19.022;2022-11-25T08:27:34;68.93;;;36.13;;
27003;SDS011;14546;47.590;19.022;2022-11-25T08:30:00;65.47;;;36.00;;
27003;SDS011;14546;47.590;19.022;2022-11-25T08:32:26;69.45;;;38.03;;
27003;SDS011;14546;47.590;19.022;2022-11-25T08:34:52;65.53;;;37.42;;
27003;SDS011;14546;47.590;19.022;2022-11-25T08:37:18;63.35;;;37.20;;
27003;SDS011;14546;47.590;19.022;2022-11-25T08:39:44;70.47;;;33.90;;
27003;SDS011;14546;47.590;19.022;2022-11-25T08:42:10;61.10;;;34.63;;
27003;SDS011;14546;47.590;19.022;2022-11-25T08:44:36;54.60;;;32.88;;
27003;SDS011;14546;47.590;19.022;2022-11-25T08:47:02;53.78;;;32.10;;
27003;SDS011;14546;47.590;19.022;2022-11-25T08:49:28;53.85;;;31.88;;
27003;SDS011;14546;47.590;19.022;2022-11-25T08:51:54;58.50;;;33.58;;
27003;SDS011;14546;47.590;19.022;2022-11-25T08:54:20;54.58;;;32.85;;
27003;SDS011;14546;47.590;19.022;2022-11-25T08:56:46;55.15;;;32.20;;
27003;SDS011;14546;47.590;19.022;2022-11-25T08:59:15;50.75;;;30.88;;
27003;SDS011;14546;47.590;19.022;2022-11-25T09:01:41;45.90;;;28.88;;
27003;SDS011;14546;47.590;19.022;2022-11-25T09:04:08;46.00;;;28.90;;
27003;SDS011;14546;47.590;19.022;2022-11-25T09:06:34;42.90;;;26.75;;
27003;SDS011;14546;47.590;19.022;2022-11-25T09:08:59;47.08;;;26.85;;
27003;SDS011;14546;47.590;19.022;2022-11-25T09:11:26;45.63;;;27.45;;
27003;SDS011;14546;47.590;19.022;2022-11-25T09:13:51;41.38;;;26.10;;
27003;SDS011;14546;47.590;19.022;2022-11-25T09:16:18;42.03;;;26.20;;
27003;SDS011;14546;47.590;19.022;2022-11-25T09:18:45;42.63;;;25.13;;
27003;SDS011;14546;47.590;19.022;2022-11-25T09:21:12;40.22;;;27.95;;
27003;SDS011;14546;47.590;19.022;2022-11-25T09:23:39;40.28;;;27.33;;
27003;SDS011;14546;47.590;19.022;2022-11-25T09:26:05;41.75;;;25.70;;
27003;SDS011;14546;47.590;19.022;2022-11-25T09:28:32;37.42;;;25.52;;
27003;SDS011;14546;47.590;19.022;2022-11-25T09:30:58;41.35;;;26.83;;
27003;SDS011;14546;47.590;19.022;2022-11-25T09:33:24;41.88;;;26.58;;
27003;SDS011;14546;47.590;19.022;2022-11-25T09:35:50;37.92;;;25.65;;
27003;SDS011;14546;47.590;19.022;2022-11-25T09:38:16;42.38;;;23.48;;
27003;SDS011;14546;47.590;19.022;2022-11-25T09:54:26;35.88;;;22.73;;
27003;SDS011;14546;47.590;19.022;2022-11-25T09:56:56;33.00;;;22.08;;
27003;SDS011;14546;47.590;19.022;2022-11-25T09:59:47;34.22;;;21.15;;
27003;SDS011;14546;47.590;19.022;2022-11-25T10:02:16;30.83;;;22.35;;
27003;SDS011;14546;47.590;19.022;2022-11-25T10:04:46;34.38;;;22.48;;
27003;SDS011;14546;47.590;19.022;2022-11-25T10:07:23;34.65;;;22.58;;
27003;SDS011;14546;47.590;19.022;2022-11-25T10:09:54;31.45;;;22.98;;
27003;SDS011;14546;47.590;19.022;2022-11-25T10:12:25;28.58;;;20.65;;
27003;SDS011;14546;47.590;19.022;2022-11-25T10:15:03;35.38;;;20.05;;
27003;SDS011;14546;47.590;19.022;2022-11-25T10:17:50;33.83;;;19.98;;
27003;SDS011;14546;47.590;19.022;2022-11-25T10:20:33;28.65;;;19.20;;
27003;SDS011;14546;47.590;19.022;2022-11-25T10:23:11;29.07;;;18.93;;
27003;SDS011;14546;47.590;19.022;2022-11-25T10:25:43;27.33;;;18.45;;
27003;SDS011;14546;47.590;19.022;2022-11-25T10:28:17;28.67;;;17.77;;
27003;SDS011;14546;47.590;19.022;2022-11-25T10:30:52;23.52;;;16.80;;
27003;SDS011;14546;47.590;19.022;2022-11-25T10:38:25;21.30;;;14.43;;
27003;SDS011;14546;47.590;19.022;2022-11-25T10:40:52;21.42;;;14.40;;
27003;SDS011;14546;47.590;19.022;2022-11-25T10:43:19;24.95;;;14.93;;
27003;SDS011;14546;47.590;19.022;2022-11-25T10:51:05;20.50;;;13.55;;
27003;SDS011;14546;47.590;19.022;2022-11-25T10:53:34;18.83;;;12.10;;
27003;SDS011;14546;47.590;19.022;2022-11-25T10:56:10;18.55;;;12.10;;
27003;SDS011;14546;47.590;19.022;2022-11-25T10:58:37;19.05;;;12.70;;
27003;SDS011;14546;47.590;19.022;2022-11-25T11:03:32;18.42;;;12.93;;
27003;SDS011;14546;47.590;19.022;2022-11-25T11:05:59;20.38;;;11.63;;
27003;SDS011;14546;47.590;19.022;2022-11-25T11:08:26;18.38;;;11.73;;
27003;SDS011;14546;47.590;19.022;2022-11-25T11:13:37;16.60;;;9.68;;
27003;SDS011;14546;47.590;19.022;2022-11-25T11:16:03;16.42;;;10.30;;
27003;SDS011;14546;47.590;19.022;2022-11-25T11:18:39;15.40;;;8.98;;
27003;SDS011;14546;47.590;19.022;2022-11-25T11:21:06;15.95;;;10.20;;
27003;SDS011;14546;47.590;19.022;2022-11-25T11:23:46;14.38;;;8.93;;
27003;SDS011;14546;47.590;19.022;2022-11-25T11:26:19;16.15;;;8.43;;
27003;SDS011;14546;47.590;19.022;2022-11-25T11:28:46;12.32;;;9.10;;
27003;SDS011;14546;47.590;19.022;2022-11-25T11:31:20;12.75;;;7.97;;
27003;SDS011;14546;47.590;19.022;2022-11-25T11:33:54;17.25;;;11.00;;
27003;SDS011;14546;47.590;19.022;2022-11-25T11:41:44;15.38;;;10.60;;
27003;SDS011;14546;47.590;19.022;2022-11-25T11:52:10;15.57;;;10.73;;
27003;SDS011;14546;47.590;19.022;2022-11-25T11:54:42;27.10;;;13.77;;
27003;SDS011;14546;47.590;19.022;2022-11-25T11:57:28;28.73;;;16.00;;
27003;SDS011;14546;47.590;19.022;2022-11-25T11:59:56;26.45;;;14.75;;
27003;SDS011;14546;47.590;19.022;2022-11-25T12:02:36;20.60;;;13.63;;
27003;SDS011;14546;47.590;19.022;2022-11-25T12:13:01;21.48;;;14.95;;
27003;SDS011;14546;47.590;19.022;2022-11-25T12:20:46;11.45;;;6.97;;
27003;SDS011;14546;47.590;19.022;2022-11-25T12:23:24;15.30;;;8.05;;
27003;SDS011;14546;47.590;19.022;2022-11-25T12:25:53;15.82;;;8.40;;
27003;SDS011;14546;47.590;19.022;2022-11-25T12:28:25;13.88;;;7.57;;
27003;SDS011;14546;47.590;19.022;2022-11-25T12:33:25;14.00;;;7.55;;
27003;SDS011;14546;47.590;19.022;2022-11-25T12:36:07;16.25;;;8.48;;
27003;SDS011;14546;47.590;19.022;2022-11-25T12:38:36;17.33;;;9.32;;
27003;SDS011;14546;47.590;19.022;2022-11-25T12:43:42;16.52;;;9.57;;
27003;SDS011;14546;47.590;19.022;2022-11-25T12:46:12;16.88;;;9.85;;
27003;SDS011;14546;47.590;19.022;2022-11-25T12:48:41;14.32;;;8.63;;
27003;SDS011;14546;47.590;19.022;2022-11-25T12:51:15;14.20;;;9.07;;
27003;SDS011;14546;47.590;19.022;2022-11-25T12:54:04;22.80;;;9.57;;
27003;SDS011;14546;47.590;19.022;2022-11-25T12:56:49;16.45;;;9.40;;
27003;SDS011;14546;47.590;19.022;2022-11-25T12:59:27;17.08;;;9.30;;
27003;SDS011;14546;47.590;19.022;2022-11-25T13:07:28;15.02;;;10.20;;
27003;SDS011;14546;47.590;19.022;2022-11-25T13:12:29;21.88;;;10.93;;
27003;SDS011;14546;47.590;19.022;2022-11-25T13:17:25;19.10;;;11.82;;
27003;SDS011;14546;47.590;19.022;2022-11-25T13:22:38;18.48;;;11.73;;
27003;SDS011;14546;47.590;19.022;2022-11-25T13:25:16;21.25;;;12.13;;
27003;SDS011;14546;47.590;19.022;2022-11-25T13:40:55;23.65;;;13.48;;
27003;SDS011;14546;47.590;19.022;2022-11-25T13:43:21;21.73;;;13.73;;
27003;SDS011;14546;47.590;19.022;2022-11-25T13:45:47;20.98;;;12.77;;
27003;SDS011;14546;47.590;19.022;2022-11-25T13:48:29;20.13;;;11.90;;
27003;SDS011;14546;47.590;19.022;2022-11-25T13:53:41;23.70;;;13.70;;
27003;SDS011;14546;47.590;19.022;2022-11-25T13:56:31;25.55;;;14.27;;
27003;SDS011;14546;47.590;19.022;2022-11-25T14:01:36;24.30;;;14.15;;
27003;SDS011;14546;47.590;19.022;2022-11-25T14:04:06;24.02;;;14.35;;
27003;SDS011;14546;47.590;19.022;2022-11-25T14:09:03;20.60;;;11.88;;
27003;SDS011;14546;47.590;19.022;2022-11-25T14:16:49;27.90;;;13.40;;
27003;SDS011;14546;47.590;19.022;2022-11-25T14:19:21;22.65;;;13.65;;
27003;SDS011;14546;47.590;19.022;2022-11-25T14:24:49;23.83;;;14.32;;
27003;SDS011;14546;47.590;19.022;2022-11-25T14:27:19;27.80;;;14.88;;
27003;SDS011;14546;47.590;19.022;2022-11-25T14:29:48;37.97;;;17.13;;
27003;SDS011;14546;47.590;19.022;2022-11-25T14:34:53;31.38;;;16.48;;
27003;SDS011;14546;47.590;19.022;2022-11-25T14:37:36;26.40;;;15.30;;
27003;SDS011;14546;47.590;19.022;2022-11-25T14:40:23;28.90;;;16.05;;
27003;SDS011;14546;47.590;19.022;2022-11-25T14:42:53;26.83;;;15.57;;
27003;SDS011;14546;47.590;19.022;2022-11-25T14:45:24;28.33;;;16.98;;
27003;SDS011;14546;47.590;19.022;2022-11-25T14:47:50;30.30;;;17.20;;
27003;SDS011;14546;47.590;19.022;2022-11-25T14:50:16;32.60;;;18.98;;
27003;SDS011;14546;47.590;19.022;2022-11-25T14:52:43;31.00;;;17.88;;
27003;SDS011;14546;47.590;19.022;2022-11-25T14:55:11;28.35;;;17.60;;
27003;SDS011;14546;47.590;19.022;2022-11-25T14:57:38;38.25;;;18.55;;
27003;SDS011;14546;47.590;19.022;2022-11-25T15:00:07;45.55;;;19.05;;
27003;SDS011;14546;47.590;19.022;2022-11-25T15:02:37;29.95;;;18.55;;
27003;SDS011;14546;47.590;19.022;2022-11-25T15:07:33;36.05;;;18.73;;
27003;SDS011;14546;47.590;19.022;2022-11-25T15:09:59;39.60;;;18.90;;
27003;SDS011;14546;47.590;19.022;2022-11-25T15:12:30;31.55;;;18.73;;
27003;SDS011;14546;47.590;19.022;2022-11-25T15:14:57;38.33;;;19.33;;
27003;SDS011;14546;47.590;19.022;2022-11-25T15:17:24;36.72;;;20.05;;
27003;SDS011;14546;47.590;19.022;2022-11-25T15:19:51;35.97;;;21.42;;
27003;SDS011;14546;47.590;19.022;2022-11-25T15:22:18;36.85;;;21.42;;
27003;SDS011;14546;47.590;19.022;2022-11-25T15:24:45;39.22;;;20.55;;
27003;SDS011;14546;47.590;19.022;2022-11-25T15:27:19;36.17;;;20.95;;
27003;SDS011;14546;47.590;19.022;2022-11-25T15:29:46;36.35;;;20.98;;
27003;SDS011;14546;47.590;19.022;2022-11-25T15:32:21;38.22;;;21.10;;
27003;SDS011;14546;47.590;19.022;2022-11-25T15:34:48;36.63;;;22.05;;
27003;SDS011;14546;47.590;19.022;2022-11-25T15:37:15;40.55;;;21.75;;
27003;SDS011;14546;47.590;19.022;2022-11-25T15:39:41;36.92;;;22.42;;
27003;SDS011;14546;47.590;19.022;2022-11-25T15:42:15;41.13;;;23.08;;
27003;SDS011;14546;47.590;19.022;2022-11-25T15:44:52;40.90;;;23.40;;
27003;SDS011;14546;47.590;19.022;2022-11-25T15:47:26;48.08;;;25.13;;
27003;SDS011;14546;47.590;19.022;2022-11-25T15:52:18;43.35;;;25.58;;
27003;SDS011;14546;47.590;19.022;2022-11-25T15:54:47;46.85;;;25.92;;
27003;SDS011;14546;47.590;19.022;2022-11-25T16:04:50;43.28;;;26.13;;
27003;SDS011;14546;47.590;19.022;2022-11-25T16:07:21;48.08;;;27.40;;
27003;SDS011;14546;47.590;19.022;2022-11-25T16:09:50;47.72;;;27.30;;
27003;SDS011;14546;47.590;19.022;2022-11-25T16:12:16;51.83;;;29.65;;
27003;SDS011;14546;47.590;19.022;2022-11-25T16:14:42;54.65;;;33.35;;
27003;SDS011;14546;47.590;19.022;2022-11-25T16:17:09;66.65;;;36.17;;
27003;SDS011;14546;47.590;19.022;2022-11-25T16:19:40;63.80;;;35.72;;
27003;SDS011;14546;47.590;19.022;2022-11-25T16:22:16;61.95;;;35.70;;
27003;SDS011;14546;47.590;19.022;2022-11-25T16:24:48;58.92;;;35.50;;